sensor_id;sensor_type;location;lat;lon;timestamp;P1;durP1;ratioP1;P2;durP2;ratioP2
35518;SDS011;21627;48.216;16.482;2022-09-12T00:01:20;9.55;;;5.38;;
35518;SDS011;21627;48.216;16.482;2022-09-12T00:03:53;9.13;;;5.50;;
35518;SDS011;21627;48.216;16.482;2022-09-12T00:06:30;9.25;;;5.78;;
35518;SDS011;21627;48.216;16.482;2022-09-12T00:09:02;12.90;;;6.07;;
35518;SDS011;21627;48.216;16.482;2022-09-12T00:11:37;11.18;;;5.65;;
35518;SDS011;21627;48.216;16.482;2022-09-12T00:14:08;7.70;;;5.18;;
35518;SDS011;21627;48.216;16.482;2022-09-12T00:16:42;7.40;;;5.13;;
35518;SDS011;21627;48.216;16.482;2022-09-12T00:19:10;7.80;;;5.45;;
35518;SDS011;21627;48.216;16.482;2022-09-12T00:21:38;9.73;;;5.72;;
35518;SDS011;21627;48.216;16.482;2022-09-12T00:24:06;11.55;;;6.07;;
35518;SDS011;21627;48.216;16.482;2022-09-12T00:26:34;6.32;;;4.85;;
35518;SDS011;21627;48.216;16.482;2022-09-12T00:29:01;9.00;;;5.15;;
35518;SDS011;21627;48.216;16.482;2022-09-12T00:31:29;9.00;;;5.38;;
35518;SDS011;21627;48.216;16.482;2022-09-12T00:34:00;7.10;;;5.30;;
35518;SDS011;21627;48.216;16.482;2022-09-12T00:36:30;10.88;;;4.50;;
35518;SDS011;21627;48.216;16.482;2022-09-12T00:38:58;6.88;;;5.18;;
35518;SDS011;21627;48.216;16.482;2022-09-12T00:41:30;10.38;;;5.97;;
35518;SDS011;21627;48.216;16.482;2022-09-12T00:49:25;10.68;;;5.10;;
35518;SDS011;21627;48.216;16.482;2022-09-12T00:54:35;7.90;;;4.88;;
35518;SDS011;21627;48.216;16.482;2022-09-12T00:57:20;14.43;;;4.65;;
35518;SDS011;21627;48.216;16.482;2022-09-12T00:59:52;6.35;;;4.72;;
35518;SDS011;21627;48.216;16.482;2022-09-12T01:02:30;7.57;;;4.40;;
35518;SDS011;21627;48.216;16.482;2022-09-12T01:04:57;6.70;;;4.65;;
35518;SDS011;21627;48.216;16.482;2022-09-12T01:07:25;5.72;;;4.75;;
35518;SDS011;21627;48.216;16.482;2022-09-12T01:09:53;7.40;;;4.32;;
35518;SDS011;21627;48.216;16.482;2022-09-12T01:12:21;8.10;;;4.53;;
35518;SDS011;21627;48.216;16.482;2022-09-12T01:14:51;14.30;;;4.45;;
35518;SDS011;21627;48.216;16.482;2022-09-12T01:17:18;10.60;;;4.63;;
35518;SDS011;21627;48.216;16.482;2022-09-12T01:22:53;6.47;;;4.57;;
35518;SDS011;21627;48.216;16.482;2022-09-12T01:36:42;6.80;;;5.25;;
35518;SDS011;21627;48.216;16.482;2022-09-12T01:39:25;6.38;;;4.80;;
35518;SDS011;21627;48.216;16.482;2022-09-12T01:42:23;7.47;;;4.72;;
35518;SDS011;21627;48.216;16.482;2022-09-12T01:45:10;7.57;;;4.22;;
35518;SDS011;21627;48.216;16.482;2022-09-12T01:48:07;11.90;;;5.40;;
35518;SDS011;21627;48.216;16.482;2022-09-12T01:51:01;6.75;;;4.40;;
35518;SDS011;21627;48.216;16.482;2022-09-12T01:54:01;7.45;;;5.13;;
35518;SDS011;21627;48.216;16.482;2022-09-12T01:56:37;9.15;;;4.30;;
35518;SDS011;21627;48.216;16.482;2022-09-12T02:01:58;7.60;;;4.30;;
35518;SDS011;21627;48.216;16.482;2022-09-12T02:04:37;6.13;;;4.32;;
35518;SDS011;21627;48.216;16.482;2022-09-12T02:07:32;7.55;;;4.78;;
35518;SDS011;21627;48.216;16.482;2022-09-12T02:10:17;7.55;;;4.45;;
35518;SDS011;21627;48.216;16.482;2022-09-12T02:13:02;8.35;;;5.03;;
35518;SDS011;21627;48.216;16.482;2022-09-12T02:16:07;7.80;;;5.13;;
35518;SDS011;21627;48.216;16.482;2022-09-12T02:18:39;6.43;;;4.70;;
35518;SDS011;21627;48.216;16.482;2022-09-12T02:21:18;6.10;;;4.80;;
35518;SDS011;21627;48.216;16.482;2022-09-12T02:23:57;12.82;;;4.65;;
35518;SDS011;21627;48.216;16.482;2022-09-12T02:26:35;5.72;;;4.00;;
35518;SDS011;21627;48.216;16.482;2022-09-12T02:29:12;8.32;;;4.35;;
35518;SDS011;21627;48.216;16.482;2022-09-12T02:37:30;6.80;;;4.95;;
35518;SDS011;21627;48.216;16.482;2022-09-12T02:40:40;6.68;;;4.72;;
35518;SDS011;21627;48.216;16.482;2022-09-12T02:43:07;6.60;;;4.70;;
35518;SDS011;21627;48.216;16.482;2022-09-12T02:45:35;7.30;;;5.00;;
35518;SDS011;21627;48.216;16.482;2022-09-12T02:48:10;8.13;;;4.50;;
35518;SDS011;21627;48.216;16.482;2022-09-12T02:50:47;9.32;;;5.15;;
35518;SDS011;21627;48.216;16.482;2022-09-12T02:53:14;11.55;;;4.57;;
35518;SDS011;21627;48.216;16.482;2022-09-12T02:55:43;5.82;;;4.78;;
35518;SDS011;21627;48.216;16.482;2022-09-12T02:58:14;9.73;;;4.78;;
35518;SDS011;21627;48.216;16.482;2022-09-12T03:00:53;6.82;;;5.50;;
35518;SDS011;21627;48.216;16.482;2022-09-12T03:03:37;10.35;;;5.43;;
35518;SDS011;21627;48.216;16.482;2022-09-12T03:12:52;7.10;;;5.13;;
35518;SDS011;21627;48.216;16.482;2022-09-12T03:23:40;10.82;;;6.20;;
35518;SDS011;21627;48.216;16.482;2022-09-12T03:29:02;11.57;;;5.68;;
35518;SDS011;21627;48.216;16.482;2022-09-12T03:31:32;8.65;;;5.85;;
35518;SDS011;21627;48.216;16.482;2022-09-12T03:34:03;8.73;;;6.15;;
35518;SDS011;21627;48.216;16.482;2022-09-12T03:36:31;8.73;;;5.82;;
35518;SDS011;21627;48.216;16.482;2022-09-12T03:38:58;9.75;;;5.82;;
35518;SDS011;21627;48.216;16.482;2022-09-12T03:41:25;9.30;;;6.25;;
35518;SDS011;21627;48.216;16.482;2022-09-12T03:43:56;9.57;;;5.95;;
35518;SDS011;21627;48.216;16.482;2022-09-12T03:46:23;8.20;;;6.18;;
35518;SDS011;21627;48.216;16.482;2022-09-12T03:48:50;10.70;;;6.53;;
35518;SDS011;21627;48.216;16.482;2022-09-12T03:51:17;7.85;;;5.47;;
35518;SDS011;21627;48.216;16.482;2022-09-12T03:53:45;9.10;;;6.00;;
35518;SDS011;21627;48.216;16.482;2022-09-12T03:56:13;9.65;;;5.57;;
35518;SDS011;21627;48.216;16.482;2022-09-12T03:58:40;10.80;;;6.18;;
35518;SDS011;21627;48.216;16.482;2022-09-12T04:01:08;15.65;;;5.97;;
35518;SDS011;21627;48.216;16.482;2022-09-12T04:03:42;8.88;;;5.32;;
35518;SDS011;21627;48.216;16.482;2022-09-12T04:06:13;11.50;;;6.20;;
35518;SDS011;21627;48.216;16.482;2022-09-12T04:08:43;8.85;;;5.82;;
35518;SDS011;21627;48.216;16.482;2022-09-12T04:11:14;10.57;;;6.35;;
35518;SDS011;21627;48.216;16.482;2022-09-12T04:13:42;17.88;;;7.22;;
35518;SDS011;21627;48.216;16.482;2022-09-12T04:16:14;15.18;;;6.03;;
35518;SDS011;21627;48.216;16.482;2022-09-12T04:18:43;18.85;;;6.30;;
35518;SDS011;21627;48.216;16.482;2022-09-12T04:21:15;15.23;;;6.32;;
35518;SDS011;21627;48.216;16.482;2022-09-12T04:23:48;12.70;;;7.00;;
35518;SDS011;21627;48.216;16.482;2022-09-12T04:26:16;10.27;;;6.80;;
35518;SDS011;21627;48.216;16.482;2022-09-12T04:28:44;8.95;;;6.43;;
35518;SDS011;21627;48.216;16.482;2022-09-12T04:31:16;9.80;;;5.75;;
35518;SDS011;21627;48.216;16.482;2022-09-12T04:33:46;8.23;;;5.70;;
35518;SDS011;21627;48.216;16.482;2022-09-12T04:36:14;10.25;;;5.82;;
35518;SDS011;21627;48.216;16.482;2022-09-12T04:38:43;7.72;;;5.85;;
35518;SDS011;21627;48.216;16.482;2022-09-12T04:41:13;9.65;;;6.05;;
35518;SDS011;21627;48.216;16.482;2022-09-12T04:43:47;8.23;;;5.60;;
35518;SDS011;21627;48.216;16.482;2022-09-12T04:46:19;13.85;;;6.35;;
35518;SDS011;21627;48.216;16.482;2022-09-12T04:48:47;9.55;;;6.45;;
35518;SDS011;21627;48.216;16.482;2022-09-12T04:51:26;9.68;;;6.07;;
35518;SDS011;21627;48.216;16.482;2022-09-12T04:54:00;8.32;;;6.07;;
35518;SDS011;21627;48.216;16.482;2022-09-12T04:56:35;9.60;;;6.18;;
35518;SDS011;21627;48.216;16.482;2022-09-12T04:59:05;9.45;;;6.13;;
35518;SDS011;21627;48.216;16.482;2022-09-12T05:01:34;9.00;;;5.82;;
35518;SDS011;21627;48.216;16.482;2022-09-12T05:04:02;10.02;;;6.10;;
35518;SDS011;21627;48.216;16.482;2022-09-12T05:06:30;8.15;;;5.85;;
35518;SDS011;21627;48.216;16.482;2022-09-12T05:09:01;8.85;;;6.00;;
35518;SDS011;21627;48.216;16.482;2022-09-12T05:11:31;15.43;;;5.82;;
35518;SDS011;21627;48.216;16.482;2022-09-12T05:14:21;8.48;;;5.18;;
35518;SDS011;21627;48.216;16.482;2022-09-12T05:16:48;8.25;;;6.07;;
35518;SDS011;21627;48.216;16.482;2022-09-12T05:19:19;15.68;;;5.82;;
35518;SDS011;21627;48.216;16.482;2022-09-12T05:21:46;9.48;;;6.50;;
35518;SDS011;21627;48.216;16.482;2022-09-12T05:24:13;11.07;;;5.47;;
35518;SDS011;21627;48.216;16.482;2022-09-12T05:26:46;9.13;;;5.72;;
35518;SDS011;21627;48.216;16.482;2022-09-12T05:29:16;11.93;;;6.25;;
35518;SDS011;21627;48.216;16.482;2022-09-12T05:31:47;10.13;;;6.45;;
35518;SDS011;21627;48.216;16.482;2022-09-12T05:34:17;10.70;;;5.00;;
35518;SDS011;21627;48.216;16.482;2022-09-12T05:36:45;9.73;;;5.72;;
35518;SDS011;21627;48.216;16.482;2022-09-12T05:39:13;7.65;;;5.72;;
35518;SDS011;21627;48.216;16.482;2022-09-12T05:41:40;9.05;;;5.72;;
35518;SDS011;21627;48.216;16.482;2022-09-12T05:44:10;9.48;;;5.50;;
35518;SDS011;21627;48.216;16.482;2022-09-12T05:46:40;10.98;;;6.05;;
35518;SDS011;21627;48.216;16.482;2022-09-12T05:49:10;9.85;;;5.28;;
35518;SDS011;21627;48.216;16.482;2022-09-12T05:51:43;14.60;;;6.75;;
35518;SDS011;21627;48.216;16.482;2022-09-12T05:54:12;9.10;;;5.95;;
35518;SDS011;21627;48.216;16.482;2022-09-12T05:56:42;10.25;;;5.95;;
35518;SDS011;21627;48.216;16.482;2022-09-12T05:59:17;11.23;;;6.20;;
35518;SDS011;21627;48.216;16.482;2022-09-12T06:01:50;12.30;;;5.80;;
35518;SDS011;21627;48.216;16.482;2022-09-12T06:04:17;13.85;;;6.60;;
35518;SDS011;21627;48.216;16.482;2022-09-12T06:06:45;11.27;;;6.07;;
35518;SDS011;21627;48.216;16.482;2022-09-12T06:09:13;10.68;;;5.60;;
35518;SDS011;21627;48.216;16.482;2022-09-12T06:11:42;9.40;;;5.80;;
35518;SDS011;21627;48.216;16.482;2022-09-12T06:14:14;8.65;;;5.65;;
35518;SDS011;21627;48.216;16.482;2022-09-12T06:16:43;8.68;;;5.53;;
35518;SDS011;21627;48.216;16.482;2022-09-12T06:19:20;7.78;;;5.50;;
35518;SDS011;21627;48.216;16.482;2022-09-12T06:21:49;9.35;;;5.80;;
35518;SDS011;21627;48.216;16.482;2022-09-12T06:24:17;11.07;;;5.15;;
35518;SDS011;21627;48.216;16.482;2022-09-12T06:26:49;9.75;;;5.30;;
35518;SDS011;21627;48.216;16.482;2022-09-12T06:29:19;10.07;;;5.68;;
35518;SDS011;21627;48.216;16.482;2022-09-12T06:31:47;10.75;;;6.35;;
35518;SDS011;21627;48.216;16.482;2022-09-12T06:34:15;10.77;;;5.57;;
35518;SDS011;21627;48.216;16.482;2022-09-12T06:36:44;9.82;;;6.07;;
35518;SDS011;21627;48.216;16.482;2022-09-12T06:39:15;9.48;;;5.15;;
35518;SDS011;21627;48.216;16.482;2022-09-12T06:41:45;9.80;;;5.60;;
35518;SDS011;21627;48.216;16.482;2022-09-12T06:44:18;11.45;;;5.82;;
35518;SDS011;21627;48.216;16.482;2022-09-12T06:46:47;8.88;;;5.45;;
35518;SDS011;21627;48.216;16.482;2022-09-12T06:49:15;9.68;;;5.40;;
35518;SDS011;21627;48.216;16.482;2022-09-12T06:51:46;6.97;;;5.00;;
35518;SDS011;21627;48.216;16.482;2022-09-12T06:54:14;9.35;;;5.15;;
35518;SDS011;21627;48.216;16.482;2022-09-12T06:56:42;7.90;;;5.28;;
35518;SDS011;21627;48.216;16.482;2022-09-12T06:59:10;8.13;;;5.30;;
35518;SDS011;21627;48.216;16.482;2022-09-12T07:01:38;8.35;;;5.13;;
35518;SDS011;21627;48.216;16.482;2022-09-12T07:04:07;8.70;;;5.47;;
35518;SDS011;21627;48.216;16.482;2022-09-12T07:06:41;7.95;;;4.88;;
35518;SDS011;21627;48.216;16.482;2022-09-12T07:09:11;9.40;;;5.10;;
35518;SDS011;21627;48.216;16.482;2022-09-12T07:11:43;6.93;;;4.68;;
35518;SDS011;21627;48.216;16.482;2022-09-12T07:14:12;4.95;;;3.92;;
35518;SDS011;21627;48.216;16.482;2022-09-12T07:16:40;8.50;;;5.53;;
35518;SDS011;21627;48.216;16.482;2022-09-12T07:19:07;10.43;;;5.25;;
35518;SDS011;21627;48.216;16.482;2022-09-12T07:21:35;11.27;;;5.25;;
35518;SDS011;21627;48.216;16.482;2022-09-12T07:24:06;7.45;;;4.72;;
35518;SDS011;21627;48.216;16.482;2022-09-12T07:26:35;11.18;;;5.07;;
35518;SDS011;21627;48.216;16.482;2022-09-12T07:29:05;10.77;;;5.57;;
35518;SDS011;21627;48.216;16.482;2022-09-12T07:31:54;9.02;;;5.65;;
35518;SDS011;21627;48.216;16.482;2022-09-12T07:34:21;12.52;;;5.63;;
35518;SDS011;21627;48.216;16.482;2022-09-12T07:36:49;8.77;;;5.45;;
35518;SDS011;21627;48.216;16.482;2022-09-12T07:39:16;12.45;;;5.85;;
35518;SDS011;21627;48.216;16.482;2022-09-12T07:41:43;9.27;;;6.30;;
35518;SDS011;21627;48.216;16.482;2022-09-12T07:44:10;8.18;;;5.30;;
35518;SDS011;21627;48.216;16.482;2022-09-12T07:46:37;7.75;;;5.43;;
35518;SDS011;21627;48.216;16.482;2022-09-12T07:49:05;8.45;;;5.90;;
35518;SDS011;21627;48.216;16.482;2022-09-12T07:51:34;7.53;;;5.57;;
35518;SDS011;21627;48.216;16.482;2022-09-12T07:54:01;9.05;;;5.85;;
35518;SDS011;21627;48.216;16.482;2022-09-12T07:56:32;7.00;;;5.10;;
35518;SDS011;21627;48.216;16.482;2022-09-12T07:59:04;10.70;;;6.47;;
35518;SDS011;21627;48.216;16.482;2022-09-12T08:01:33;12.30;;;6.25;;
35518;SDS011;21627;48.216;16.482;2022-09-12T08:04:01;10.18;;;6.13;;
35518;SDS011;21627;48.216;16.482;2022-09-12T08:06:30;11.70;;;5.93;;
35518;SDS011;21627;48.216;16.482;2022-09-12T08:08:59;8.70;;;5.80;;
35518;SDS011;21627;48.216;16.482;2022-09-12T08:11:30;7.93;;;5.35;;
35518;SDS011;21627;48.216;16.482;2022-09-12T08:13:57;8.75;;;5.05;;
35518;SDS011;21627;48.216;16.482;2022-09-12T08:16:28;8.73;;;5.75;;
35518;SDS011;21627;48.216;16.482;2022-09-12T08:19:00;12.27;;;5.63;;
35518;SDS011;21627;48.216;16.482;2022-09-12T08:21:30;6.57;;;4.65;;
35518;SDS011;21627;48.216;16.482;2022-09-12T08:24:00;9.30;;;5.13;;
35518;SDS011;21627;48.216;16.482;2022-09-12T08:26:31;7.70;;;4.57;;
35518;SDS011;21627;48.216;16.482;2022-09-12T08:28:59;7.25;;;4.82;;
35518;SDS011;21627;48.216;16.482;2022-09-12T08:31:29;7.30;;;5.53;;
35518;SDS011;21627;48.216;16.482;2022-09-12T08:34:05;9.82;;;5.28;;
35518;SDS011;21627;48.216;16.482;2022-09-12T08:36:33;11.65;;;5.00;;
35518;SDS011;21627;48.216;16.482;2022-09-12T08:39:02;6.40;;;4.70;;
35518;SDS011;21627;48.216;16.482;2022-09-12T08:41:42;7.60;;;4.57;;
35518;SDS011;21627;48.216;16.482;2022-09-12T08:45:15;9.05;;;4.43;;
35518;SDS011;21627;48.216;16.482;2022-09-12T08:47:46;7.25;;;4.53;;
35518;SDS011;21627;48.216;16.482;2022-09-12T08:50:18;8.77;;;4.13;;
35518;SDS011;21627;48.216;16.482;2022-09-12T08:53:03;10.32;;;4.22;;
35518;SDS011;21627;48.216;16.482;2022-09-12T08:55:44;8.55;;;4.90;;
35518;SDS011;21627;48.216;16.482;2022-09-12T08:58:22;11.00;;;4.25;;
35518;SDS011;21627;48.216;16.482;2022-09-12T09:16:13;6.68;;;3.90;;
35518;SDS011;21627;48.216;16.482;2022-09-12T09:21:56;8.02;;;3.63;;
35518;SDS011;21627;48.216;16.482;2022-09-12T09:24:39;6.53;;;3.83;;
35518;SDS011;21627;48.216;16.482;2022-09-12T09:30:12;10.55;;;4.03;;
35518;SDS011;21627;48.216;16.482;2022-09-12T09:32:46;5.78;;;3.58;;
35518;SDS011;21627;48.216;16.482;2022-09-12T09:38:04;10.02;;;3.60;;
35518;SDS011;21627;48.216;16.482;2022-09-12T09:43:19;4.70;;;3.30;;
35518;SDS011;21627;48.216;16.482;2022-09-12T09:45:50;5.28;;;3.47;;
35518;SDS011;21627;48.216;16.482;2022-09-12T09:48:20;6.28;;;2.72;;
35518;SDS011;21627;48.216;16.482;2022-09-12T09:50:59;4.93;;;3.22;;
35518;SDS011;21627;48.216;16.482;2022-09-12T09:53:48;7.22;;;3.50;;
35518;SDS011;21627;48.216;16.482;2022-09-12T09:56:37;5.85;;;3.22;;
35518;SDS011;21627;48.216;16.482;2022-09-12T10:01:49;6.40;;;3.53;;
35518;SDS011;21627;48.216;16.482;2022-09-12T10:04:24;7.57;;;3.15;;
35518;SDS011;21627;48.216;16.482;2022-09-12T10:06:58;5.13;;;2.83;;
35518;SDS011;21627;48.216;16.482;2022-09-12T10:09:29;4.03;;;2.63;;
35518;SDS011;21627;48.216;16.482;2022-09-12T10:12:23;4.93;;;3.05;;
35518;SDS011;21627;48.216;16.482;2022-09-12T10:14:57;6.10;;;3.40;;
35518;SDS011;21627;48.216;16.482;2022-09-12T10:17:42;4.47;;;2.87;;
35518;SDS011;21627;48.216;16.482;2022-09-12T10:20:31;4.72;;;2.85;;
35518;SDS011;21627;48.216;16.482;2022-09-12T10:25:47;4.30;;;3.13;;
35518;SDS011;21627;48.216;16.482;2022-09-12T10:28:22;6.93;;;2.47;;
35518;SDS011;21627;48.216;16.482;2022-09-12T10:31:00;4.28;;;2.55;;
35518;SDS011;21627;48.216;16.482;2022-09-12T10:33:29;3.00;;;2.40;;
35518;SDS011;21627;48.216;16.482;2022-09-12T10:36:01;6.25;;;2.38;;
35518;SDS011;21627;48.216;16.482;2022-09-12T10:38:31;4.85;;;2.95;;
35518;SDS011;21627;48.216;16.482;2022-09-12T10:41:04;3.50;;;2.50;;
35518;SDS011;21627;48.216;16.482;2022-09-12T10:43:36;5.32;;;2.72;;
35518;SDS011;21627;48.216;16.482;2022-09-12T10:48:42;6.43;;;2.63;;
35518;SDS011;21627;48.216;16.482;2022-09-12T10:53:57;6.32;;;2.72;;
35518;SDS011;21627;48.216;16.482;2022-09-12T10:56:32;4.25;;;2.53;;
35518;SDS011;21627;48.216;16.482;2022-09-12T11:04:51;3.80;;;2.10;;
35518;SDS011;21627;48.216;16.482;2022-09-12T11:07:49;3.13;;;2.13;;
35518;SDS011;21627;48.216;16.482;2022-09-12T11:10:43;4.18;;;2.63;;
35518;SDS011;21627;48.216;16.482;2022-09-12T11:19:20;4.75;;;2.80;;
35518;SDS011;21627;48.216;16.482;2022-09-12T11:25:15;5.20;;;2.70;;
35518;SDS011;21627;48.216;16.482;2022-09-12T11:33:45;6.07;;;2.67;;
35518;SDS011;21627;48.216;16.482;2022-09-12T11:36:47;8.25;;;2.88;;
35518;SDS011;21627;48.216;16.482;2022-09-12T11:39:20;7.22;;;3.13;;
35518;SDS011;21627;48.216;16.482;2022-09-12T11:41:58;5.22;;;2.83;;
35518;SDS011;21627;48.216;16.482;2022-09-12T11:44:35;4.57;;;3.15;;
35518;SDS011;21627;48.216;16.482;2022-09-12T11:47:09;3.97;;;2.67;;
35518;SDS011;21627;48.216;16.482;2022-09-12T11:49:48;5.18;;;2.72;;
35518;SDS011;21627;48.216;16.482;2022-09-12T11:52:22;10.98;;;2.65;;
35518;SDS011;21627;48.216;16.482;2022-09-12T11:57:43;2.75;;;2.30;;
35518;SDS011;21627;48.216;16.482;2022-09-12T12:00:36;2.85;;;2.33;;
35518;SDS011;21627;48.216;16.482;2022-09-12T12:03:17;6.18;;;2.55;;
35518;SDS011;21627;48.216;16.482;2022-09-12T12:08:44;3.03;;;2.35;;
35518;SDS011;21627;48.216;16.482;2022-09-12T12:11:15;5.50;;;2.65;;
35518;SDS011;21627;48.216;16.482;2022-09-12T12:14:02;6.05;;;3.22;;
35518;SDS011;21627;48.216;16.482;2022-09-12T12:16:38;3.53;;;2.30;;
35518;SDS011;21627;48.216;16.482;2022-09-12T12:21:43;2.65;;;1.80;;
35518;SDS011;21627;48.216;16.482;2022-09-12T12:34:35;4.40;;;2.85;;
35518;SDS011;21627;48.216;16.482;2022-09-12T12:45:02;3.78;;;2.03;;
35518;SDS011;21627;48.216;16.482;2022-09-12T12:47:54;3.75;;;2.38;;
35518;SDS011;21627;48.216;16.482;2022-09-12T12:50:36;3.60;;;2.33;;
35518;SDS011;21627;48.216;16.482;2022-09-12T12:53:04;9.95;;;1.95;;
35518;SDS011;21627;48.216;16.482;2022-09-12T12:55:49;5.30;;;2.30;;
35518;SDS011;21627;48.216;16.482;2022-09-12T12:58:26;3.85;;;2.60;;
35518;SDS011;21627;48.216;16.482;2022-09-12T13:06:42;4.32;;;2.40;;
35518;SDS011;21627;48.216;16.482;2022-09-12T13:12:02;4.38;;;2.40;;
35518;SDS011;21627;48.216;16.482;2022-09-12T13:14:50;3.08;;;2.38;;
35518;SDS011;21627;48.216;16.482;2022-09-12T13:17:24;5.90;;;2.65;;
35518;SDS011;21627;48.216;16.482;2022-09-12T13:22:58;6.18;;;2.05;;
35518;SDS011;21627;48.216;16.482;2022-09-12T13:25:33;4.53;;;2.50;;
35518;SDS011;21627;48.216;16.482;2022-09-12T13:30:42;3.53;;;2.35;;
35518;SDS011;21627;48.216;16.482;2022-09-12T13:33:19;3.50;;;2.05;;
35518;SDS011;21627;48.216;16.482;2022-09-12T13:36:13;3.15;;;2.30;;
35518;SDS011;21627;48.216;16.482;2022-09-12T13:42:47;3.53;;;2.35;;
35518;SDS011;21627;48.216;16.482;2022-09-12T13:45:22;6.25;;;2.60;;
35518;SDS011;21627;48.216;16.482;2022-09-12T13:47:58;3.33;;;2.35;;
35518;SDS011;21627;48.216;16.482;2022-09-12T13:50:30;6.65;;;2.22;;
35518;SDS011;21627;48.216;16.482;2022-09-12T13:53:19;3.75;;;2.40;;
35518;SDS011;21627;48.216;16.482;2022-09-12T13:55:57;5.95;;;2.00;;
35518;SDS011;21627;48.216;16.482;2022-09-12T13:58:32;2.92;;;2.30;;
35518;SDS011;21627;48.216;16.482;2022-09-12T14:03:51;3.08;;;2.13;;
35518;SDS011;21627;48.216;16.482;2022-09-12T14:09:21;4.03;;;2.38;;
35518;SDS011;21627;48.216;16.482;2022-09-12T14:12:00;3.72;;;1.98;;
35518;SDS011;21627;48.216;16.482;2022-09-12T14:17:36;2.65;;;1.77;;
35518;SDS011;21627;48.216;16.482;2022-09-12T14:20:34;2.78;;;1.55;;
35518;SDS011;21627;48.216;16.482;2022-09-12T14:23:03;3.42;;;1.77;;
35518;SDS011;21627;48.216;16.482;2022-09-12T14:25:56;2.00;;;1.60;;
35518;SDS011;21627;48.216;16.482;2022-09-12T14:28:28;3.25;;;2.08;;
35518;SDS011;21627;48.216;16.482;2022-09-12T14:30:57;3.55;;;1.63;;
35518;SDS011;21627;48.216;16.482;2022-09-12T14:33:45;2.80;;;1.65;;
35518;SDS011;21627;48.216;16.482;2022-09-12T14:36:30;3.60;;;1.95;;
35518;SDS011;21627;48.216;16.482;2022-09-12T14:39:15;4.90;;;1.80;;
35518;SDS011;21627;48.216;16.482;2022-09-12T14:42:03;6.43;;;1.40;;
35518;SDS011;21627;48.216;16.482;2022-09-12T14:44:54;2.08;;;1.42;;
35518;SDS011;21627;48.216;16.482;2022-09-12T14:47:29;3.17;;;1.35;;
35518;SDS011;21627;48.216;16.482;2022-09-12T14:50:29;1.85;;;1.48;;
35518;SDS011;21627;48.216;16.482;2022-09-12T14:53:47;2.83;;;1.80;;
35518;SDS011;21627;48.216;16.482;2022-09-12T14:56:11;3.88;;;1.80;;
35518;SDS011;21627;48.216;16.482;2022-09-12T14:58:39;2.58;;;1.70;;
35518;SDS011;21627;48.216;16.482;2022-09-12T15:08:58;4.70;;;1.48;;
35518;SDS011;21627;48.216;16.482;2022-09-12T15:11:31;3.85;;;2.00;;
35518;SDS011;21627;48.216;16.482;2022-09-12T15:14:05;1.90;;;1.40;;
35518;SDS011;21627;48.216;16.482;2022-09-12T15:16:40;3.75;;;1.80;;
35518;SDS011;21627;48.216;16.482;2022-09-12T15:19:10;4.03;;;1.70;;
35518;SDS011;21627;48.216;16.482;2022-09-12T15:21:37;2.45;;;1.35;;
35518;SDS011;21627;48.216;16.482;2022-09-12T15:24:04;1.98;;;1.52;;
35518;SDS011;21627;48.216;16.482;2022-09-12T15:26:32;2.35;;;1.73;;
35518;SDS011;21627;48.216;16.482;2022-09-12T15:29:02;5.35;;;1.80;;
35518;SDS011;21627;48.216;16.482;2022-09-12T15:31:30;2.20;;;1.60;;
35518;SDS011;21627;48.216;16.482;2022-09-12T15:33:58;2.45;;;1.30;;
35518;SDS011;21627;48.216;16.482;2022-09-12T15:36:27;3.83;;;1.70;;
35518;SDS011;21627;48.216;16.482;2022-09-12T15:38:55;3.15;;;1.80;;
35518;SDS011;21627;48.216;16.482;2022-09-12T15:41:30;8.00;;;1.95;;
35518;SDS011;21627;48.216;16.482;2022-09-12T15:44:03;2.30;;;1.77;;
35518;SDS011;21627;48.216;16.482;2022-09-12T15:46:32;3.80;;;1.77;;
35518;SDS011;21627;48.216;16.482;2022-09-12T15:48:59;2.05;;;1.60;;
35518;SDS011;21627;48.216;16.482;2022-09-12T15:51:30;2.72;;;1.48;;
35518;SDS011;21627;48.216;16.482;2022-09-12T15:53:58;2.17;;;1.90;;
35518;SDS011;21627;48.216;16.482;2022-09-12T15:56:30;2.20;;;1.45;;
35518;SDS011;21627;48.216;16.482;2022-09-12T15:59:01;3.15;;;1.63;;
35518;SDS011;21627;48.216;16.482;2022-09-12T16:01:28;3.15;;;1.40;;
35518;SDS011;21627;48.216;16.482;2022-09-12T16:03:55;2.97;;;2.08;;
35518;SDS011;21627;48.216;16.482;2022-09-12T16:06:23;2.53;;;1.80;;
35518;SDS011;21627;48.216;16.482;2022-09-12T16:08:50;19.83;;;2.92;;
35518;SDS011;21627;48.216;16.482;2022-09-12T16:11:24;14.15;;;3.10;;
35518;SDS011;21627;48.216;16.482;2022-09-12T16:13:55;4.22;;;2.53;;
35518;SDS011;21627;48.216;16.482;2022-09-12T16:16:22;6.95;;;2.00;;
35518;SDS011;21627;48.216;16.482;2022-09-12T16:18:49;14.00;;;2.95;;
35518;SDS011;21627;48.216;16.482;2022-09-12T16:21:20;19.23;;;4.60;;
35518;SDS011;21627;48.216;16.482;2022-09-12T16:23:48;11.15;;;3.58;;
35518;SDS011;21627;48.216;16.482;2022-09-12T16:26:15;5.88;;;2.80;;
35518;SDS011;21627;48.216;16.482;2022-09-12T16:28:43;4.43;;;2.38;;
35518;SDS011;21627;48.216;16.482;2022-09-12T16:31:11;6.97;;;2.70;;
35518;SDS011;21627;48.216;16.482;2022-09-12T16:33:40;4.90;;;2.90;;
35518;SDS011;21627;48.216;16.482;2022-09-12T16:36:08;5.03;;;2.47;;
35518;SDS011;21627;48.216;16.482;2022-09-12T16:38:44;3.85;;;2.08;;
35518;SDS011;21627;48.216;16.482;2022-09-12T16:41:14;4.30;;;2.50;;
35518;SDS011;21627;48.216;16.482;2022-09-12T16:43:44;2.83;;;2.28;;
35518;SDS011;21627;48.216;16.482;2022-09-12T16:46:15;4.10;;;2.88;;
35518;SDS011;21627;48.216;16.482;2022-09-12T16:48:49;9.20;;;2.63;;
35518;SDS011;21627;48.216;16.482;2022-09-12T16:51:26;3.03;;;2.15;;
35518;SDS011;21627;48.216;16.482;2022-09-12T16:53:57;5.88;;;2.60;;
35518;SDS011;21627;48.216;16.482;2022-09-12T16:56:24;2.40;;;2.20;;
35518;SDS011;21627;48.216;16.482;2022-09-12T16:58:52;6.43;;;2.67;;
35518;SDS011;21627;48.216;16.482;2022-09-12T17:01:21;4.18;;;3.08;;
35518;SDS011;21627;48.216;16.482;2022-09-12T17:03:51;4.00;;;2.45;;
35518;SDS011;21627;48.216;16.482;2022-09-12T17:06:23;3.97;;;2.97;;
35518;SDS011;21627;48.216;16.482;2022-09-12T17:08:57;3.65;;;2.83;;
35518;SDS011;21627;48.216;16.482;2022-09-12T17:11:28;7.75;;;3.08;;
35518;SDS011;21627;48.216;16.482;2022-09-12T17:14:02;6.38;;;2.88;;
35518;SDS011;21627;48.216;16.482;2022-09-12T17:16:34;6.43;;;2.80;;
35518;SDS011;21627;48.216;16.482;2022-09-12T17:19:04;3.75;;;2.80;;
35518;SDS011;21627;48.216;16.482;2022-09-12T17:21:32;6.28;;;2.70;;
35518;SDS011;21627;48.216;16.482;2022-09-12T17:24:01;3.85;;;3.05;;
35518;SDS011;21627;48.216;16.482;2022-09-12T17:26:29;4.30;;;2.53;;
35518;SDS011;21627;48.216;16.482;2022-09-12T17:28:56;5.93;;;2.88;;
35518;SDS011;21627;48.216;16.482;2022-09-12T17:31:24;5.95;;;2.55;;
35518;SDS011;21627;48.216;16.482;2022-09-12T17:33:56;3.90;;;2.78;;
35518;SDS011;21627;48.216;16.482;2022-09-12T17:36:24;4.50;;;2.47;;
35518;SDS011;21627;48.216;16.482;2022-09-12T17:38:53;10.25;;;3.08;;
35518;SDS011;21627;48.216;16.482;2022-09-12T17:41:22;3.30;;;2.38;;
35518;SDS011;21627;48.216;16.482;2022-09-12T17:43:53;6.93;;;2.47;;
35518;SDS011;21627;48.216;16.482;2022-09-12T17:46:24;6.75;;;2.50;;
35518;SDS011;21627;48.216;16.482;2022-09-12T17:48:58;2.97;;;2.57;;
35518;SDS011;21627;48.216;16.482;2022-09-12T17:51:27;4.50;;;2.58;;
35518;SDS011;21627;48.216;16.482;2022-09-12T17:53:57;4.93;;;2.70;;
35518;SDS011;21627;48.216;16.482;2022-09-12T17:56:31;2.75;;;2.33;;